sensor_id;sensor_type;location;lat;lon;timestamp;P1;durP1;ratioP1;P2;durP2;ratioP2
45618;SDS011;31343;47.520;19.144;2023-07-16T00:01:35;3.75;;;2.60;;
45618;SDS011;31343;47.520;19.144;2023-07-16T00:04:01;3.60;;;2.72;;
45618;SDS011;31343;47.520;19.144;2023-07-16T00:06:27;3.78;;;2.88;;
45618;SDS011;31343;47.520;19.144;2023-07-16T00:08:52;5.95;;;2.97;;
45618;SDS011;31343;47.520;19.144;2023-07-16T00:11:18;3.45;;;2.85;;
45618;SDS011;31343;47.520;19.144;2023-07-16T00:13:44;3.85;;;2.67;;
45618;SDS011;31343;47.520;19.144;2023-07-16T00:16:13;5.07;;;2.83;;
45618;SDS011;31343;47.520;19.144;2023-07-16T00:18:41;4.10;;;2.67;;
45618;SDS011;31343;47.520;19.144;2023-07-16T00:21:07;3.05;;;2.25;;
45618;SDS011;31343;47.520;19.144;2023-07-16T00:23:33;3.30;;;2.60;;
45618;SDS011;31343;47.520;19.144;2023-07-16T00:25:59;4.13;;;3.15;;
45618;SDS011;31343;47.520;19.144;2023-07-16T00:28:24;3.90;;;2.60;;
45618;SDS011;31343;47.520;19.144;2023-07-16T00:30:50;4.07;;;2.53;;
45618;SDS011;31343;47.520;19.144;2023-07-16T00:33:16;3.80;;;3.10;;
45618;SDS011;31343;47.520;19.144;2023-07-16T00:35:48;4.40;;;3.10;;
45618;SDS011;31343;47.520;19.144;2023-07-16T00:38:14;4.25;;;2.70;;
45618;SDS011;31343;47.520;19.144;2023-07-16T00:40:43;3.22;;;2.70;;
45618;SDS011;31343;47.520;19.144;2023-07-16T00:43:10;3.42;;;2.35;;
45618;SDS011;31343;47.520;19.144;2023-07-16T00:45:36;3.22;;;2.55;;
45618;SDS011;31343;47.520;19.144;2023-07-16T00:48:04;5.13;;;2.63;;
45618;SDS011;31343;47.520;19.144;2023-07-16T00:50:30;3.40;;;2.47;;
45618;SDS011;31343;47.520;19.144;2023-07-16T00:53:02;4.20;;;2.80;;
45618;SDS011;31343;47.520;19.144;2023-07-16T00:55:29;6.65;;;3.65;;
45618;SDS011;31343;47.520;19.144;2023-07-16T00:57:57;3.95;;;2.70;;
45618;SDS011;31343;47.520;19.144;2023-07-16T01:00:30;3.78;;;3.00;;
45618;SDS011;31343;47.520;19.144;2023-07-16T01:02:56;4.07;;;3.38;;
45618;SDS011;31343;47.520;19.144;2023-07-16T01:05:22;4.70;;;3.60;;
45618;SDS011;31343;47.520;19.144;2023-07-16T01:07:55;3.83;;;3.17;;
45618;SDS011;31343;47.520;19.144;2023-07-16T01:10:26;3.72;;;2.90;;
45618;SDS011;31343;47.520;19.144;2023-07-16T01:12:54;4.93;;;3.58;;
45618;SDS011;31343;47.520;19.144;2023-07-16T01:15:21;3.25;;;2.92;;
45618;SDS011;31343;47.520;19.144;2023-07-16T01:17:47;3.50;;;2.88;;
45618;SDS011;31343;47.520;19.144;2023-07-16T01:20:13;3.67;;;2.92;;
45618;SDS011;31343;47.520;19.144;2023-07-16T01:31:04;3.83;;;2.35;;
45618;SDS011;31343;47.520;19.144;2023-07-16T01:33:30;5.53;;;3.15;;
45618;SDS011;31343;47.520;19.144;2023-07-16T01:35:58;6.03;;;3.80;;
45618;SDS011;31343;47.520;19.144;2023-07-16T01:38:25;6.10;;;3.85;;
45618;SDS011;31343;47.520;19.144;2023-07-16T01:40:50;4.97;;;3.47;;
45618;SDS011;31343;47.520;19.144;2023-07-16T01:43:16;4.50;;;3.30;;
45618;SDS011;31343;47.520;19.144;2023-07-16T01:45:42;4.03;;;3.08;;
45618;SDS011;31343;47.520;19.144;2023-07-16T01:50:54;4.40;;;3.75;;
45618;SDS011;31343;47.520;19.144;2023-07-16T01:53:19;5.88;;;4.07;;
45618;SDS011;31343;47.520;19.144;2023-07-16T01:55:45;4.30;;;3.90;;
45618;SDS011;31343;47.520;19.144;2023-07-16T01:58:11;5.30;;;4.07;;
45618;SDS011;31343;47.520;19.144;2023-07-16T02:00:37;3.85;;;3.45;;
45618;SDS011;31343;47.520;19.144;2023-07-16T02:03:02;4.35;;;3.55;;
45618;SDS011;31343;47.520;19.144;2023-07-16T02:05:28;4.43;;;3.78;;
45618;SDS011;31343;47.520;19.144;2023-07-16T02:07:54;5.78;;;4.28;;
45618;SDS011;31343;47.520;19.144;2023-07-16T02:10:19;5.88;;;3.92;;
45618;SDS011;31343;47.520;19.144;2023-07-16T02:12:45;5.10;;;4.25;;
45618;SDS011;31343;47.520;19.144;2023-07-16T02:15:11;4.47;;;3.63;;
45618;SDS011;31343;47.520;19.144;2023-07-16T02:17:37;5.72;;;4.95;;
45618;SDS011;31343;47.520;19.144;2023-07-16T02:20:03;4.32;;;3.50;;
45618;SDS011;31343;47.520;19.144;2023-07-16T02:22:33;5.28;;;4.15;;
45618;SDS011;31343;47.520;19.144;2023-07-16T02:25:00;5.15;;;4.28;;
45618;SDS011;31343;47.520;19.144;2023-07-16T02:27:26;5.28;;;3.25;;
45618;SDS011;31343;47.520;19.144;2023-07-16T02:29:52;4.40;;;3.53;;
45618;SDS011;31343;47.520;19.144;2023-07-16T02:32:18;4.60;;;3.53;;
45618;SDS011;31343;47.520;19.144;2023-07-16T02:34:44;5.20;;;4.45;;
45618;SDS011;31343;47.520;19.144;2023-07-16T02:37:09;6.07;;;4.30;;
45618;SDS011;31343;47.520;19.144;2023-07-16T02:39:35;5.28;;;4.13;;
45618;SDS011;31343;47.520;19.144;2023-07-16T02:42:01;6.03;;;4.45;;
45618;SDS011;31343;47.520;19.144;2023-07-16T02:44:27;4.43;;;3.72;;
45618;SDS011;31343;47.520;19.144;2023-07-16T02:46:52;6.15;;;4.35;;
45618;SDS011;31343;47.520;19.144;2023-07-16T02:49:18;4.93;;;3.70;;
45618;SDS011;31343;47.520;19.144;2023-07-16T02:51:44;4.95;;;3.78;;
45618;SDS011;31343;47.520;19.144;2023-07-16T02:54:09;6.35;;;4.88;;
45618;SDS011;31343;47.520;19.144;2023-07-16T02:56:35;5.30;;;3.80;;
45618;SDS011;31343;47.520;19.144;2023-07-16T02:59:01;4.75;;;4.10;;
45618;SDS011;31343;47.520;19.144;2023-07-16T03:01:26;4.47;;;3.63;;
45618;SDS011;31343;47.520;19.144;2023-07-16T03:03:52;4.22;;;3.83;;
45618;SDS011;31343;47.520;19.144;2023-07-16T03:06:18;4.78;;;3.92;;
45618;SDS011;31343;47.520;19.144;2023-07-16T03:08:44;4.50;;;3.72;;
45618;SDS011;31343;47.520;19.144;2023-07-16T03:11:10;6.05;;;4.15;;
45618;SDS011;31343;47.520;19.144;2023-07-16T03:13:38;5.53;;;4.55;;
45618;SDS011;31343;47.520;19.144;2023-07-16T03:16:03;5.30;;;4.25;;
45618;SDS011;31343;47.520;19.144;2023-07-16T03:18:29;4.75;;;3.90;;
45618;SDS011;31343;47.520;19.144;2023-07-16T03:20:56;5.75;;;4.22;;
45618;SDS011;31343;47.520;19.144;2023-07-16T03:23:22;4.93;;;3.80;;
45618;SDS011;31343;47.520;19.144;2023-07-16T03:25:48;6.50;;;4.32;;
45618;SDS011;31343;47.520;19.144;2023-07-16T03:28:16;4.93;;;4.10;;
45618;SDS011;31343;47.520;19.144;2023-07-16T03:30:45;5.35;;;4.07;;
45618;SDS011;31343;47.520;19.144;2023-07-16T03:33:11;4.82;;;3.97;;
45618;SDS011;31343;47.520;19.144;2023-07-16T03:35:37;5.18;;;4.65;;
45618;SDS011;31343;47.520;19.144;2023-07-16T03:38:03;5.35;;;4.45;;
45618;SDS011;31343;47.520;19.144;2023-07-16T03:40:28;5.10;;;4.32;;
45618;SDS011;31343;47.520;19.144;2023-07-16T03:42:55;5.63;;;4.75;;
45618;SDS011;31343;47.520;19.144;2023-07-16T03:45:20;6.15;;;5.53;;
45618;SDS011;31343;47.520;19.144;2023-07-16T03:47:46;5.72;;;4.25;;
45618;SDS011;31343;47.520;19.144;2023-07-16T03:50:12;5.20;;;3.95;;
45618;SDS011;31343;47.520;19.144;2023-07-16T03:52:38;5.20;;;4.60;;
45618;SDS011;31343;47.520;19.144;2023-07-16T03:55:03;6.25;;;4.65;;
45618;SDS011;31343;47.520;19.144;2023-07-16T03:57:29;5.55;;;4.05;;
45618;SDS011;31343;47.520;19.144;2023-07-16T03:59:55;5.90;;;4.82;;
45618;SDS011;31343;47.520;19.144;2023-07-16T04:02:21;5.53;;;4.10;;
45618;SDS011;31343;47.520;19.144;2023-07-16T04:04:48;5.47;;;4.00;;
45618;SDS011;31343;47.520;19.144;2023-07-16T04:07:14;5.35;;;4.43;;
45618;SDS011;31343;47.520;19.144;2023-07-16T04:09:39;4.57;;;3.42;;
45618;SDS011;31343;47.520;19.144;2023-07-16T04:12:05;4.90;;;3.40;;
45618;SDS011;31343;47.520;19.144;2023-07-16T04:14:32;5.60;;;4.65;;
45618;SDS011;31343;47.520;19.144;2023-07-16T04:16:58;7.32;;;4.57;;
45618;SDS011;31343;47.520;19.144;2023-07-16T04:19:24;4.72;;;3.55;;
45618;SDS011;31343;47.520;19.144;2023-07-16T04:21:49;5.30;;;3.92;;
45618;SDS011;31343;47.520;19.144;2023-07-16T04:24:15;5.57;;;4.25;;
45618;SDS011;31343;47.520;19.144;2023-07-16T04:26:41;3.85;;;2.95;;
45618;SDS011;31343;47.520;19.144;2023-07-16T04:29:07;4.07;;;3.33;;
45618;SDS011;31343;47.520;19.144;2023-07-16T04:31:32;4.82;;;3.30;;
45618;SDS011;31343;47.520;19.144;2023-07-16T04:33:58;4.40;;;3.47;;
45618;SDS011;31343;47.520;19.144;2023-07-16T04:36:24;4.40;;;3.20;;
45618;SDS011;31343;47.520;19.144;2023-07-16T04:38:50;5.68;;;3.28;;
45618;SDS011;31343;47.520;19.144;2023-07-16T04:41:16;4.55;;;2.83;;
45618;SDS011;31343;47.520;19.144;2023-07-16T04:43:42;5.03;;;4.18;;
45618;SDS011;31343;47.520;19.144;2023-07-16T04:46:08;4.18;;;3.03;;
45618;SDS011;31343;47.520;19.144;2023-07-16T04:48:33;3.97;;;3.10;;
45618;SDS011;31343;47.520;19.144;2023-07-16T04:50:59;3.40;;;2.58;;
45618;SDS011;31343;47.520;19.144;2023-07-16T04:53:25;4.25;;;2.83;;
45618;SDS011;31343;47.520;19.144;2023-07-16T04:55:51;4.53;;;2.40;;
45618;SDS011;31343;47.520;19.144;2023-07-16T04:58:16;4.00;;;2.60;;
45618;SDS011;31343;47.520;19.144;2023-07-16T05:00:42;3.95;;;2.53;;
45618;SDS011;31343;47.520;19.144;2023-07-16T05:03:08;2.85;;;2.45;;
45618;SDS011;31343;47.520;19.144;2023-07-16T05:05:34;3.17;;;2.67;;
45618;SDS011;31343;47.520;19.144;2023-07-16T05:08:00;3.55;;;2.53;;
45618;SDS011;31343;47.520;19.144;2023-07-16T05:10:26;3.88;;;2.45;;
45618;SDS011;31343;47.520;19.144;2023-07-16T05:12:52;3.45;;;2.58;;
45618;SDS011;31343;47.520;19.144;2023-07-16T05:15:18;5.75;;;3.75;;
45618;SDS011;31343;47.520;19.144;2023-07-16T05:17:44;3.30;;;2.17;;
45618;SDS011;31343;47.520;19.144;2023-07-16T05:20:10;4.55;;;2.65;;
45618;SDS011;31343;47.520;19.144;2023-07-16T05:22:36;4.82;;;3.22;;
45618;SDS011;31343;47.520;19.144;2023-07-16T05:25:02;3.58;;;2.53;;
45618;SDS011;31343;47.520;19.144;2023-07-16T05:27:28;3.15;;;2.63;;
45618;SDS011;31343;47.520;19.144;2023-07-16T05:29:54;4.47;;;2.42;;
45618;SDS011;31343;47.520;19.144;2023-07-16T05:32:19;3.60;;;2.50;;
45618;SDS011;31343;47.520;19.144;2023-07-16T05:34:46;3.05;;;1.95;;
45618;SDS011;31343;47.520;19.144;2023-07-16T05:37:12;2.83;;;2.33;;
45618;SDS011;31343;47.520;19.144;2023-07-16T05:39:38;3.72;;;2.53;;
45618;SDS011;31343;47.520;19.144;2023-07-16T05:42:04;2.38;;;1.85;;
45618;SDS011;31343;47.520;19.144;2023-07-16T05:44:31;4.38;;;2.35;;
45618;SDS011;31343;47.520;19.144;2023-07-16T05:46:57;2.22;;;1.80;;
45618;SDS011;31343;47.520;19.144;2023-07-16T05:49:23;3.22;;;1.90;;
45618;SDS011;31343;47.520;19.144;2023-07-16T05:51:50;1.73;;;1.30;;
45618;SDS011;31343;47.520;19.144;2023-07-16T05:54:16;2.50;;;1.35;;
45618;SDS011;31343;47.520;19.144;2023-07-16T05:56:42;2.20;;;1.50;;
45618;SDS011;31343;47.520;19.144;2023-07-16T05:59:08;2.67;;;1.52;;
45618;SDS011;31343;47.520;19.144;2023-07-16T06:01:35;2.60;;;1.40;;
45618;SDS011;31343;47.520;19.144;2023-07-16T06:04:00;3.17;;;1.40;;
45618;SDS011;31343;47.520;19.144;2023-07-16T06:06:27;5.45;;;2.30;;
45618;SDS011;31343;47.520;19.144;2023-07-16T06:08:53;2.60;;;1.50;;
45618;SDS011;31343;47.520;19.144;2023-07-16T06:11:19;2.03;;;1.30;;
45618;SDS011;31343;47.520;19.144;2023-07-16T06:13:46;2.42;;;1.38;;
45618;SDS011;31343;47.520;19.144;2023-07-16T06:16:12;2.53;;;1.50;;
45618;SDS011;31343;47.520;19.144;2023-07-16T06:18:38;2.85;;;1.48;;
45618;SDS011;31343;47.520;19.144;2023-07-16T06:21:03;3.72;;;1.45;;
45618;SDS011;31343;47.520;19.144;2023-07-16T06:23:29;2.47;;;1.55;;
45618;SDS011;31343;47.520;19.144;2023-07-16T06:25:55;2.17;;;1.30;;
45618;SDS011;31343;47.520;19.144;2023-07-16T06:28:21;1.95;;;1.38;;
45618;SDS011;31343;47.520;19.144;2023-07-16T06:30:49;2.00;;;1.40;;
45618;SDS011;31343;47.520;19.144;2023-07-16T06:33:17;1.88;;;1.38;;
45618;SDS011;31343;47.520;19.144;2023-07-16T06:35:46;2.35;;;1.30;;
45618;SDS011;31343;47.520;19.144;2023-07-16T06:38:15;1.83;;;1.30;;
45618;SDS011;31343;47.520;19.144;2023-07-16T06:40:47;1.67;;;1.10;;
45618;SDS011;31343;47.520;19.144;2023-07-16T06:43:14;2.55;;;1.08;;
45618;SDS011;31343;47.520;19.144;2023-07-16T06:45:40;1.90;;;1.23;;
45618;SDS011;31343;47.520;19.144;2023-07-16T06:48:06;1.85;;;1.48;;
45618;SDS011;31343;47.520;19.144;2023-07-16T06:50:32;1.98;;;1.27;;
45618;SDS011;31343;47.520;19.144;2023-07-16T06:52:59;1.67;;;1.20;;
45618;SDS011;31343;47.520;19.144;2023-07-16T06:55:24;1.55;;;1.15;;
45618;SDS011;31343;47.520;19.144;2023-07-16T06:57:50;1.80;;;1.30;;
45618;SDS011;31343;47.520;19.144;2023-07-16T07:00:16;1.10;;;0.90;;
45618;SDS011;31343;47.520;19.144;2023-07-16T07:02:42;1.77;;;1.10;;
45618;SDS011;31343;47.520;19.144;2023-07-16T07:05:08;1.50;;;1.05;;
45618;SDS011;31343;47.520;19.144;2023-07-16T07:07:34;1.80;;;1.52;;
45618;SDS011;31343;47.520;19.144;2023-07-16T07:09:59;2.00;;;1.33;;
45618;SDS011;31343;47.520;19.144;2023-07-16T07:12:25;1.60;;;1.10;;
45618;SDS011;31343;47.520;19.144;2023-07-16T07:14:51;2.58;;;1.50;;
45618;SDS011;31343;47.520;19.144;2023-07-16T07:17:17;2.72;;;1.60;;
45618;SDS011;31343;47.520;19.144;2023-07-16T07:19:43;1.73;;;1.17;;
45618;SDS011;31343;47.520;19.144;2023-07-16T07:22:09;2.00;;;1.52;;
45618;SDS011;31343;47.520;19.144;2023-07-16T07:24:35;2.65;;;1.48;;
45618;SDS011;31343;47.520;19.144;2023-07-16T07:27:01;1.73;;;1.10;;
45618;SDS011;31343;47.520;19.144;2023-07-16T07:29:26;1.30;;;1.10;;
45618;SDS011;31343;47.520;19.144;2023-07-16T07:31:52;1.70;;;1.20;;
45618;SDS011;31343;47.520;19.144;2023-07-16T07:34:18;1.98;;;1.30;;
45618;SDS011;31343;47.520;19.144;2023-07-16T07:36:44;1.75;;;1.02;;
45618;SDS011;31343;47.520;19.144;2023-07-16T07:39:11;1.70;;;1.13;;
45618;SDS011;31343;47.520;19.144;2023-07-16T07:41:38;1.70;;;1.25;;
45618;SDS011;31343;47.520;19.144;2023-07-16T07:44:04;2.42;;;1.58;;
45618;SDS011;31343;47.520;19.144;2023-07-16T07:46:31;1.83;;;1.23;;
45618;SDS011;31343;47.520;19.144;2023-07-16T07:48:56;2.40;;;1.08;;
45618;SDS011;31343;47.520;19.144;2023-07-16T07:51:22;1.40;;;0.95;;
45618;SDS011;31343;47.520;19.144;2023-07-16T07:53:48;1.50;;;1.10;;
45618;SDS011;31343;47.520;19.144;2023-07-16T07:56:14;1.35;;;1.00;;
45618;SDS011;31343;47.520;19.144;2023-07-16T07:58:40;2.63;;;1.63;;
45618;SDS011;31343;47.520;19.144;2023-07-16T08:01:06;1.67;;;1.20;;
45618;SDS011;31343;47.520;19.144;2023-07-16T08:03:32;1.70;;;1.35;;
45618;SDS011;31343;47.520;19.144;2023-07-16T08:05:59;1.52;;;1.40;;
45618;SDS011;31343;47.520;19.144;2023-07-16T08:08:24;1.83;;;1.30;;
45618;SDS011;31343;47.520;19.144;2023-07-16T08:10:50;1.52;;;1.15;;
45618;SDS011;31343;47.520;19.144;2023-07-16T08:13:16;1.77;;;1.27;;
45618;SDS011;31343;47.520;19.144;2023-07-16T08:15:41;2.42;;;1.23;;
45618;SDS011;31343;47.520;19.144;2023-07-16T08:18:08;2.10;;;1.35;;
45618;SDS011;31343;47.520;19.144;2023-07-16T08:20:35;3.10;;;1.50;;
45618;SDS011;31343;47.520;19.144;2023-07-16T08:23:03;2.03;;;1.10;;
45618;SDS011;31343;47.520;19.144;2023-07-16T08:25:29;2.15;;;1.65;;
45618;SDS011;31343;47.520;19.144;2023-07-16T08:27:55;1.58;;;1.00;;
45618;SDS011;31343;47.520;19.144;2023-07-16T08:30:20;1.52;;;1.08;;
45618;SDS011;31343;47.520;19.144;2023-07-16T08:32:47;2.30;;;1.40;;
45618;SDS011;31343;47.520;19.144;2023-07-16T08:35:12;2.72;;;1.30;;
45618;SDS011;31343;47.520;19.144;2023-07-16T08:37:43;2.10;;;1.25;;
45618;SDS011;31343;47.520;19.144;2023-07-16T08:40:09;2.00;;;1.20;;
45618;SDS011;31343;47.520;19.144;2023-07-16T08:42:39;1.95;;;1.23;;
45618;SDS011;31343;47.520;19.144;2023-07-16T08:45:09;2.00;;;1.30;;
45618;SDS011;31343;47.520;19.144;2023-07-16T08:47:36;1.80;;;1.25;;
45618;SDS011;31343;47.520;19.144;2023-07-16T08:50:21;1.83;;;1.30;;
45618;SDS011;31343;47.520;19.144;2023-07-16T08:52:48;1.58;;;1.15;;
45618;SDS011;31343;47.520;19.144;2023-07-16T08:55:14;2.05;;;1.48;;
45618;SDS011;31343;47.520;19.144;2023-07-16T08:57:41;2.50;;;1.35;;
45618;SDS011;31343;47.520;19.144;2023-07-16T09:00:08;1.88;;;1.30;;
45618;SDS011;31343;47.520;19.144;2023-07-16T09:02:35;1.77;;;1.38;;
45618;SDS011;31343;47.520;19.144;2023-07-16T09:05:02;2.85;;;2.13;;
45618;SDS011;31343;47.520;19.144;2023-07-16T09:07:29;2.67;;;1.42;;
45618;SDS011;31343;47.520;19.144;2023-07-16T09:09:58;2.70;;;1.50;;
45618;SDS011;31343;47.520;19.144;2023-07-16T09:12:25;2.00;;;1.40;;
45618;SDS011;31343;47.520;19.144;2023-07-16T09:14:51;2.45;;;2.03;;
45618;SDS011;31343;47.520;19.144;2023-07-16T09:17:23;2.65;;;1.73;;
45618;SDS011;31343;47.520;19.144;2023-07-16T09:19:50;2.17;;;1.65;;
45618;SDS011;31343;47.520;19.144;2023-07-16T09:22:17;2.40;;;1.50;;
45618;SDS011;31343;47.520;19.144;2023-07-16T09:24:44;2.78;;;1.98;;
45618;SDS011;31343;47.520;19.144;2023-07-16T09:27:11;2.50;;;1.70;;
45618;SDS011;31343;47.520;19.144;2023-07-16T09:29:39;2.90;;;2.17;;
45618;SDS011;31343;47.520;19.144;2023-07-16T09:32:05;2.75;;;1.83;;
45618;SDS011;31343;47.520;19.144;2023-07-16T09:34:31;2.35;;;1.75;;
45618;SDS011;31343;47.520;19.144;2023-07-16T09:36:57;3.40;;;2.17;;
45618;SDS011;31343;47.520;19.144;2023-07-16T09:39:25;3.47;;;2.55;;
45618;SDS011;31343;47.520;19.144;2023-07-16T09:41:51;1.90;;;1.58;;
45618;SDS011;31343;47.520;19.144;2023-07-16T09:44:17;4.30;;;2.10;;
45618;SDS011;31343;47.520;19.144;2023-07-16T09:46:44;3.72;;;2.20;;
45618;SDS011;31343;47.520;19.144;2023-07-16T09:49:14;3.13;;;2.40;;
45618;SDS011;31343;47.520;19.144;2023-07-16T09:51:40;3.13;;;2.40;;
45618;SDS011;31343;47.520;19.144;2023-07-16T09:54:08;2.45;;;2.08;;
45618;SDS011;31343;47.520;19.144;2023-07-16T09:56:39;3.10;;;1.92;;
45618;SDS011;31343;47.520;19.144;2023-07-16T09:59:09;3.08;;;2.10;;
45618;SDS011;31343;47.520;19.144;2023-07-16T10:01:39;2.65;;;1.80;;
45618;SDS011;31343;47.520;19.144;2023-07-16T10:06:59;2.75;;;2.15;;
45618;SDS011;31343;47.520;19.144;2023-07-16T10:14:43;11.43;;;2.78;;
45618;SDS011;31343;47.520;19.144;2023-07-16T10:17:14;4.55;;;2.42;;
45618;SDS011;31343;47.520;19.144;2023-07-16T10:19:47;2.53;;;1.83;;
45618;SDS011;31343;47.520;19.144;2023-07-16T10:22:13;5.88;;;3.25;;
45618;SDS011;31343;47.520;19.144;2023-07-16T10:24:40;4.25;;;2.08;;
45618;SDS011;31343;47.520;19.144;2023-07-16T10:27:06;3.45;;;2.53;;
45618;SDS011;31343;47.520;19.144;2023-07-16T10:29:32;3.17;;;2.58;;
45618;SDS011;31343;47.520;19.144;2023-07-16T10:31:58;3.40;;;2.85;;
45618;SDS011;31343;47.520;19.144;2023-07-16T10:34:24;2.97;;;2.40;;
45618;SDS011;31343;47.520;19.144;2023-07-16T10:36:52;4.25;;;3.20;;
45618;SDS011;31343;47.520;19.144;2023-07-16T10:39:18;3.22;;;2.45;;
45618;SDS011;31343;47.520;19.144;2023-07-16T10:41:44;3.88;;;3.15;;
45618;SDS011;31343;47.520;19.144;2023-07-16T10:44:14;2.97;;;2.25;;
45618;SDS011;31343;47.520;19.144;2023-07-16T10:46:47;4.25;;;3.03;;
45618;SDS011;31343;47.520;19.144;2023-07-16T10:49:47;2.67;;;2.45;;
45618;SDS011;31343;47.520;19.144;2023-07-16T10:52:06;3.20;;;2.70;;
45618;SDS011;31343;47.520;19.144;2023-07-16T10:54:32;3.35;;;2.53;;
45618;SDS011;31343;47.520;19.144;2023-07-16T10:56:58;4.78;;;2.40;;
45618;SDS011;31343;47.520;19.144;2023-07-16T10:59:24;3.00;;;2.33;;
45618;SDS011;31343;47.520;19.144;2023-07-16T11:01:50;3.35;;;2.50;;
45618;SDS011;31343;47.520;19.144;2023-07-16T11:04:16;3.45;;;2.70;;
45618;SDS011;31343;47.520;19.144;2023-07-16T11:06:42;2.70;;;2.20;;
45618;SDS011;31343;47.520;19.144;2023-07-16T11:09:10;3.10;;;2.42;;
45618;SDS011;31343;47.520;19.144;2023-07-16T11:11:36;3.65;;;2.65;;
45618;SDS011;31343;47.520;19.144;2023-07-16T11:14:04;3.38;;;2.58;;
45618;SDS011;31343;47.520;19.144;2023-07-16T11:16:37;2.70;;;2.15;;
45618;SDS011;31343;47.520;19.144;2023-07-16T11:19:04;3.00;;;2.17;;
45618;SDS011;31343;47.520;19.144;2023-07-16T11:21:33;2.63;;;2.05;;
45618;SDS011;31343;47.520;19.144;2023-07-16T11:24:14;3.33;;;1.67;;
45618;SDS011;31343;47.520;19.144;2023-07-16T11:26:49;3.00;;;1.88;;
45618;SDS011;31343;47.520;19.144;2023-07-16T11:29:19;3.10;;;2.25;;
45618;SDS011;31343;47.520;19.144;2023-07-16T11:31:48;2.80;;;2.00;;
45618;SDS011;31343;47.520;19.144;2023-07-16T11:34:20;2.97;;;1.90;;
45618;SDS011;31343;47.520;19.144;2023-07-16T11:36:47;3.95;;;2.17;;
45618;SDS011;31343;47.520;19.144;2023-07-16T11:39:13;3.65;;;2.35;;
45618;SDS011;31343;47.520;19.144;2023-07-16T11:41:39;2.40;;;1.63;;
45618;SDS011;31343;47.520;19.144;2023-07-16T11:44:07;2.63;;;1.80;;
45618;SDS011;31343;47.520;19.144;2023-07-16T11:46:33;2.20;;;1.60;;
45618;SDS011;31343;47.520;19.144;2023-07-16T11:49:00;2.15;;;1.55;;
45618;SDS011;31343;47.520;19.144;2023-07-16T11:51:26;2.50;;;1.73;;
45618;SDS011;31343;47.520;19.144;2023-07-16T11:53:52;2.22;;;1.30;;
45618;SDS011;31343;47.520;19.144;2023-07-16T11:56:19;2.13;;;1.63;;
45618;SDS011;31343;47.520;19.144;2023-07-16T11:58:45;2.28;;;1.75;;
45618;SDS011;31343;47.520;19.144;2023-07-16T12:01:11;2.65;;;1.77;;
45618;SDS011;31343;47.520;19.144;2023-07-16T12:03:36;2.55;;;2.08;;
45618;SDS011;31343;47.520;19.144;2023-07-16T12:06:02;2.65;;;1.55;;
45618;SDS011;31343;47.520;19.144;2023-07-16T12:08:28;2.00;;;1.33;;
45618;SDS011;31343;47.520;19.144;2023-07-16T12:10:54;1.98;;;1.35;;
45618;SDS011;31343;47.520;19.144;2023-07-16T12:13:20;2.10;;;1.35;;
45618;SDS011;31343;47.520;19.144;2023-07-16T12:15:46;3.17;;;1.90;;
45618;SDS011;31343;47.520;19.144;2023-07-16T12:18:12;2.40;;;1.58;;
45618;SDS011;31343;47.520;19.144;2023-07-16T12:20:39;1.85;;;1.30;;
45618;SDS011;31343;47.520;19.144;2023-07-16T12:23:05;2.10;;;1.35;;
45618;SDS011;31343;47.520;19.144;2023-07-16T12:25:31;2.53;;;1.52;;
45618;SDS011;31343;47.520;19.144;2023-07-16T12:27:56;2.00;;;1.30;;
45618;SDS011;31343;47.520;19.144;2023-07-16T12:30:23;2.42;;;1.70;;
45618;SDS011;31343;47.520;19.144;2023-07-16T12:32:50;2.40;;;1.60;;
45618;SDS011;31343;47.520;19.144;2023-07-16T12:35:15;2.38;;;1.50;;
45618;SDS011;31343;47.520;19.144;2023-07-16T12:37:41;2.40;;;1.55;;
45618;SDS011;31343;47.520;19.144;2023-07-16T12:40:07;2.95;;;1.73;;
45618;SDS011;31343;47.520;19.144;2023-07-16T12:42:33;3.20;;;1.98;;
45618;SDS011;31343;47.520;19.144;2023-07-16T12:45:00;2.13;;;1.52;;
45618;SDS011;31343;47.520;19.144;2023-07-16T12:47:26;2.50;;;1.70;;
45618;SDS011;31343;47.520;19.144;2023-07-16T12:49:52;2.33;;;1.85;;
45618;SDS011;31343;47.520;19.144;2023-07-16T12:52:18;2.72;;;1.45;;
45618;SDS011;31343;47.520;19.144;2023-07-16T12:54:43;2.55;;;2.05;;
45618;SDS011;31343;47.520;19.144;2023-07-16T12:57:09;2.40;;;1.50;;
45618;SDS011;31343;47.520;19.144;2023-07-16T12:59:35;2.22;;;1.65;;
45618;SDS011;31343;47.520;19.144;2023-07-16T13:02:00;2.30;;;1.98;;
45618;SDS011;31343;47.520;19.144;2023-07-16T13:04:27;2.83;;;1.77;;
45618;SDS011;31343;47.520;19.144;2023-07-16T13:06:53;2.65;;;1.70;;
45618;SDS011;31343;47.520;19.144;2023-07-16T13:09:19;2.42;;;1.55;;
45618;SDS011;31343;47.520;19.144;2023-07-16T13:11:44;2.15;;;1.63;;
45618;SDS011;31343;47.520;19.144;2023-07-16T13:14:10;2.78;;;2.00;;
45618;SDS011;31343;47.520;19.144;2023-07-16T13:16:36;4.10;;;1.98;;
45618;SDS011;31343;47.520;19.144;2023-07-16T13:19:01;2.53;;;1.35;;
45618;SDS011;31343;47.520;19.144;2023-07-16T13:21:27;2.63;;;1.80;;
45618;SDS011;31343;47.520;19.144;2023-07-16T13:23:53;3.88;;;1.88;;
45618;SDS011;31343;47.520;19.144;2023-07-16T13:26:18;2.17;;;1.65;;
45618;SDS011;31343;47.520;19.144;2023-07-16T13:28:44;3.38;;;1.85;;
45618;SDS011;31343;47.520;19.144;2023-07-16T13:31:10;2.70;;;2.03;;
45618;SDS011;31343;47.520;19.144;2023-07-16T13:33:36;2.72;;;1.52;;
45618;SDS011;31343;47.520;19.144;2023-07-16T13:36:02;2.38;;;1.65;;
45618;SDS011;31343;47.520;19.144;2023-07-16T13:38:29;4.07;;;2.38;;
45618;SDS011;31343;47.520;19.144;2023-07-16T13:40:56;3.45;;;1.60;;
45618;SDS011;31343;47.520;19.144;2023-07-16T13:43:21;2.72;;;1.95;;
45618;SDS011;31343;47.520;19.144;2023-07-16T13:45:47;3.00;;;1.88;;
45618;SDS011;31343;47.520;19.144;2023-07-16T13:48:13;4.28;;;1.92;;
45618;SDS011;31343;47.520;19.144;2023-07-16T13:50:39;2.67;;;1.75;;
45618;SDS011;31343;47.520;19.144;2023-07-16T13:53:04;6.97;;;2.13;;
45618;SDS011;31343;47.520;19.144;2023-07-16T13:55:30;2.58;;;1.45;;
45618;SDS011;31343;47.520;19.144;2023-07-16T13:57:56;2.95;;;2.30;;
45618;SDS011;31343;47.520;19.144;2023-07-16T14:00:22;2.28;;;1.70;;
45618;SDS011;31343;47.520;19.144;2023-07-16T14:02:48;3.55;;;1.92;;
45618;SDS011;31343;47.520;19.144;2023-07-16T14:05:14;2.33;;;1.98;;
45618;SDS011;31343;47.520;19.144;2023-07-16T14:07:39;2.38;;;1.88;;
45618;SDS011;31343;47.520;19.144;2023-07-16T14:10:05;1.95;;;1.33;;
45618;SDS011;31343;47.520;19.144;2023-07-16T14:12:32;2.15;;;1.60;;
45618;SDS011;31343;47.520;19.144;2023-07-16T14:14:58;4.40;;;2.08;;
45618;SDS011;31343;47.520;19.144;2023-07-16T14:17:24;2.13;;;1.50;;
45618;SDS011;31343;47.520;19.144;2023-07-16T14:19:50;2.17;;;1.60;;
45618;SDS011;31343;47.520;19.144;2023-07-16T14:22:15;4.10;;;2.20;;
45618;SDS011;31343;47.520;19.144;2023-07-16T14:24:41;2.67;;;1.85;;
45618;SDS011;31343;47.520;19.144;2023-07-16T14:27:07;2.78;;;1.85;;
45618;SDS011;31343;47.520;19.144;2023-07-16T14:29:34;2.15;;;1.50;;
45618;SDS011;31343;47.520;19.144;2023-07-16T14:32:00;2.80;;;1.73;;
45618;SDS011;31343;47.520;19.144;2023-07-16T14:34:26;2.60;;;1.52;;
45618;SDS011;31343;47.520;19.144;2023-07-16T14:36:52;2.97;;;2.08;;
45618;SDS011;31343;47.520;19.144;2023-07-16T14:39:18;2.15;;;1.50;;
45618;SDS011;31343;47.520;19.144;2023-07-16T14:41:44;2.33;;;1.75;;
45618;SDS011;31343;47.520;19.144;2023-07-16T14:44:11;2.83;;;1.90;;
45618;SDS011;31343;47.520;19.144;2023-07-16T14:46:37;2.80;;;1.98;;
45618;SDS011;31343;47.520;19.144;2023-07-16T14:49:03;2.33;;;1.40;;